sensor_id;sensor_type;location;lat;lon;timestamp;P1;durP1;ratioP1;P2;durP2;ratioP2
62929;SDS011;49036;42.782;23.108;2023-02-12T00:00:35;16.08;;;8.00;;
62929;SDS011;49036;42.782;23.108;2023-02-12T00:03:02;17.88;;;6.75;;
62929;SDS011;49036;42.782;23.108;2023-02-12T00:05:28;17.85;;;7.68;;
62929;SDS011;49036;42.782;23.108;2023-02-12T00:07:53;14.73;;;7.18;;
62929;SDS011;49036;42.782;23.108;2023-02-12T00:10:19;12.23;;;7.63;;
62929;SDS011;49036;42.782;23.108;2023-02-12T00:12:45;15.25;;;8.52;;
62929;SDS011;49036;42.782;23.108;2023-02-12T00:15:10;19.63;;;8.20;;
62929;SDS011;49036;42.782;23.108;2023-02-12T00:17:35;18.48;;;6.88;;
62929;SDS011;49036;42.782;23.108;2023-02-12T00:20:01;19.58;;;8.57;;
62929;SDS011;49036;42.782;23.108;2023-02-12T00:22:27;19.50;;;8.35;;
62929;SDS011;49036;42.782;23.108;2023-02-12T00:24:53;12.35;;;7.13;;
62929;SDS011;49036;42.782;23.108;2023-02-12T00:27:19;17.05;;;8.90;;
62929;SDS011;49036;42.782;23.108;2023-02-12T00:29:45;16.95;;;9.43;;
62929;SDS011;49036;42.782;23.108;2023-02-12T00:32:10;14.23;;;8.80;;
62929;SDS011;49036;42.782;23.108;2023-02-12T00:34:35;13.80;;;8.38;;
62929;SDS011;49036;42.782;23.108;2023-02-12T00:37:01;13.45;;;7.18;;
62929;SDS011;49036;42.782;23.108;2023-02-12T00:39:27;28.40;;;8.90;;
62929;SDS011;49036;42.782;23.108;2023-02-12T00:41:52;13.23;;;7.47;;
62929;SDS011;49036;42.782;23.108;2023-02-12T00:44:18;11.55;;;6.40;;
62929;SDS011;49036;42.782;23.108;2023-02-12T00:46:43;12.77;;;7.90;;
62929;SDS011;49036;42.782;23.108;2023-02-12T00:49:08;14.10;;;7.95;;
62929;SDS011;49036;42.782;23.108;2023-02-12T00:51:34;12.25;;;7.15;;
62929;SDS011;49036;42.782;23.108;2023-02-12T00:54:00;15.13;;;6.90;;
62929;SDS011;49036;42.782;23.108;2023-02-12T00:56:25;18.67;;;8.20;;
62929;SDS011;49036;42.782;23.108;2023-02-12T00:58:51;20.65;;;8.43;;
62929;SDS011;49036;42.782;23.108;2023-02-12T01:01:17;16.45;;;7.55;;
62929;SDS011;49036;42.782;23.108;2023-02-12T01:03:42;19.80;;;7.82;;
62929;SDS011;49036;42.782;23.108;2023-02-12T01:06:08;20.50;;;8.75;;
62929;SDS011;49036;42.782;23.108;2023-02-12T01:08:33;17.25;;;9.35;;
62929;SDS011;49036;42.782;23.108;2023-02-12T01:11:00;16.45;;;8.75;;
62929;SDS011;49036;42.782;23.108;2023-02-12T01:13:26;13.32;;;7.75;;
62929;SDS011;49036;42.782;23.108;2023-02-12T01:16:07;22.52;;;8.40;;
62929;SDS011;49036;42.782;23.108;2023-02-12T01:18:37;13.35;;;7.25;;
62929;SDS011;49036;42.782;23.108;2023-02-12T01:21:14;17.95;;;8.10;;
62929;SDS011;49036;42.782;23.108;2023-02-12T01:23:41;16.65;;;9.73;;
62929;SDS011;49036;42.782;23.108;2023-02-12T01:26:08;19.73;;;11.93;;
62929;SDS011;49036;42.782;23.108;2023-02-12T01:28:40;23.15;;;10.88;;
62929;SDS011;49036;42.782;23.108;2023-02-12T01:31:10;26.90;;;11.38;;
62929;SDS011;49036;42.782;23.108;2023-02-12T01:33:38;22.33;;;12.65;;
62929;SDS011;49036;42.782;23.108;2023-02-12T01:36:04;26.50;;;13.05;;
62929;SDS011;49036;42.782;23.108;2023-02-12T01:38:29;18.25;;;11.30;;
62929;SDS011;49036;42.782;23.108;2023-02-12T01:41:05;27.13;;;12.95;;
62929;SDS011;49036;42.782;23.108;2023-02-12T01:43:41;20.40;;;9.77;;
62929;SDS011;49036;42.782;23.108;2023-02-12T01:46:07;27.27;;;11.38;;
62929;SDS011;49036;42.782;23.108;2023-02-12T01:48:37;21.55;;;11.05;;
62929;SDS011;49036;42.782;23.108;2023-02-12T01:51:06;23.83;;;9.35;;
62929;SDS011;49036;42.782;23.108;2023-02-12T01:53:36;24.67;;;10.57;;
62929;SDS011;49036;42.782;23.108;2023-02-12T01:56:05;16.92;;;9.77;;
62929;SDS011;49036;42.782;23.108;2023-02-12T01:58:40;18.92;;;10.25;;
62929;SDS011;49036;42.782;23.108;2023-02-12T02:01:08;20.63;;;10.10;;
62929;SDS011;49036;42.782;23.108;2023-02-12T02:03:38;17.80;;;8.85;;
62929;SDS011;49036;42.782;23.108;2023-02-12T02:08:37;15.93;;;10.05;;
62929;SDS011;49036;42.782;23.108;2023-02-12T02:11:04;22.52;;;10.45;;
62929;SDS011;49036;42.782;23.108;2023-02-12T02:13:49;23.45;;;11.30;;
62929;SDS011;49036;42.782;23.108;2023-02-12T02:16:33;25.85;;;11.77;;
62929;SDS011;49036;42.782;23.108;2023-02-12T02:21:45;25.98;;;12.35;;
62929;SDS011;49036;42.782;23.108;2023-02-12T02:24:36;16.60;;;9.68;;
62929;SDS011;49036;42.782;23.108;2023-02-12T02:27:21;23.48;;;11.63;;
62929;SDS011;49036;42.782;23.108;2023-02-12T02:30:07;23.40;;;10.43;;
62929;SDS011;49036;42.782;23.108;2023-02-12T02:35:30;23.45;;;11.05;;
62929;SDS011;49036;42.782;23.108;2023-02-12T02:41:13;23.45;;;10.43;;
62929;SDS011;49036;42.782;23.108;2023-02-12T02:43:42;24.92;;;11.55;;
62929;SDS011;49036;42.782;23.108;2023-02-12T02:48:51;21.73;;;12.10;;
62929;SDS011;49036;42.782;23.108;2023-02-12T02:51:19;22.90;;;10.07;;
62929;SDS011;49036;42.782;23.108;2023-02-12T02:53:51;20.50;;;9.70;;
62929;SDS011;49036;42.782;23.108;2023-02-12T02:56:22;22.35;;;11.20;;
62929;SDS011;49036;42.782;23.108;2023-02-12T02:58:52;21.10;;;11.07;;
62929;SDS011;49036;42.782;23.108;2023-02-12T03:04:06;22.63;;;10.13;;
62929;SDS011;49036;42.782;23.108;2023-02-12T03:06:37;14.45;;;8.15;;
62929;SDS011;49036;42.782;23.108;2023-02-12T03:09:16;18.52;;;10.30;;
62929;SDS011;49036;42.782;23.108;2023-02-12T03:12:00;27.15;;;10.90;;
62929;SDS011;49036;42.782;23.108;2023-02-12T03:15:13;24.10;;;9.63;;
62929;SDS011;49036;42.782;23.108;2023-02-12T03:17:24;24.27;;;11.02;;
62929;SDS011;49036;42.782;23.108;2023-02-12T03:19:55;23.80;;;11.68;;
62929;SDS011;49036;42.782;23.108;2023-02-12T03:22:28;31.77;;;12.73;;
62929;SDS011;49036;42.782;23.108;2023-02-12T03:25:00;19.40;;;11.05;;
62929;SDS011;49036;42.782;23.108;2023-02-12T03:27:36;24.25;;;12.60;;
62929;SDS011;49036;42.782;23.108;2023-02-12T03:30:05;21.35;;;11.10;;
62929;SDS011;49036;42.782;23.108;2023-02-12T03:32:36;21.80;;;12.27;;
62929;SDS011;49036;42.782;23.108;2023-02-12T03:35:07;24.38;;;11.20;;
62929;SDS011;49036;42.782;23.108;2023-02-12T03:38:20;25.10;;;11.68;;
62929;SDS011;49036;42.782;23.108;2023-02-12T03:43:19;20.98;;;10.90;;
62929;SDS011;49036;42.782;23.108;2023-02-12T03:45:50;22.73;;;12.02;;
62929;SDS011;49036;42.782;23.108;2023-02-12T03:53:35;21.75;;;10.02;;
62929;SDS011;49036;42.782;23.108;2023-02-12T03:56:36;26.15;;;10.27;;
62929;SDS011;49036;42.782;23.108;2023-02-12T03:59:11;23.02;;;11.60;;
62929;SDS011;49036;42.782;23.108;2023-02-12T04:01:37;23.73;;;10.80;;
62929;SDS011;49036;42.782;23.108;2023-02-12T04:04:03;20.17;;;11.80;;
62929;SDS011;49036;42.782;23.108;2023-02-12T04:06:30;21.52;;;8.75;;
62929;SDS011;49036;42.782;23.108;2023-02-12T04:08:57;21.08;;;11.00;;
62929;SDS011;49036;42.782;23.108;2023-02-12T04:20:04;20.35;;;11.52;;
62929;SDS011;49036;42.782;23.108;2023-02-12T04:25:51;17.75;;;10.70;;
62929;SDS011;49036;42.782;23.108;2023-02-12T04:28:28;21.15;;;10.00;;
62929;SDS011;49036;42.782;23.108;2023-02-12T04:31:02;17.58;;;9.07;;
62929;SDS011;49036;42.782;23.108;2023-02-12T04:37:20;19.83;;;11.02;;
62929;SDS011;49036;42.782;23.108;2023-02-12T04:39:38;22.77;;;10.15;;
62929;SDS011;49036;42.782;23.108;2023-02-12T04:42:06;20.45;;;9.30;;
62929;SDS011;49036;42.782;23.108;2023-02-12T04:44:34;22.23;;;10.70;;
62929;SDS011;49036;42.782;23.108;2023-02-12T04:47:03;16.70;;;7.57;;
62929;SDS011;49036;42.782;23.108;2023-02-12T04:49:28;20.08;;;11.73;;
62929;SDS011;49036;42.782;23.108;2023-02-12T04:51:54;20.30;;;11.75;;
62929;SDS011;49036;42.782;23.108;2023-02-12T04:54:20;19.88;;;10.88;;
62929;SDS011;49036;42.782;23.108;2023-02-12T04:56:47;21.60;;;10.63;;
62929;SDS011;49036;42.782;23.108;2023-02-12T04:59:13;23.20;;;11.65;;
62929;SDS011;49036;42.782;23.108;2023-02-12T05:01:39;23.15;;;10.57;;
62929;SDS011;49036;42.782;23.108;2023-02-12T05:04:05;25.33;;;15.23;;
62929;SDS011;49036;42.782;23.108;2023-02-12T05:06:34;23.83;;;11.80;;
62929;SDS011;49036;42.782;23.108;2023-02-12T05:09:02;19.02;;;10.18;;
62929;SDS011;49036;42.782;23.108;2023-02-12T05:11:29;21.35;;;13.63;;
62929;SDS011;49036;42.782;23.108;2023-02-12T05:13:54;24.25;;;10.43;;
62929;SDS011;49036;42.782;23.108;2023-02-12T05:16:20;25.25;;;12.40;;
62929;SDS011;49036;42.782;23.108;2023-02-12T05:18:46;19.70;;;10.52;;
62929;SDS011;49036;42.782;23.108;2023-02-12T05:21:12;23.52;;;10.90;;
62929;SDS011;49036;42.782;23.108;2023-02-12T05:23:38;18.50;;;10.35;;
62929;SDS011;49036;42.782;23.108;2023-02-12T05:26:05;26.10;;;12.77;;
62929;SDS011;49036;42.782;23.108;2023-02-12T05:28:33;25.45;;;11.77;;
62929;SDS011;49036;42.782;23.108;2023-02-12T05:31:02;27.55;;;13.95;;
62929;SDS011;49036;42.782;23.108;2023-02-12T05:33:29;23.48;;;12.15;;
62929;SDS011;49036;42.782;23.108;2023-02-12T05:35:55;23.20;;;10.10;;
62929;SDS011;49036;42.782;23.108;2023-02-12T05:38:26;24.92;;;13.45;;
62929;SDS011;49036;42.782;23.108;2023-02-12T05:40:52;26.33;;;11.55;;
62929;SDS011;49036;42.782;23.108;2023-02-12T05:43:17;26.48;;;12.93;;
62929;SDS011;49036;42.782;23.108;2023-02-12T05:45:42;30.10;;;15.63;;
62929;SDS011;49036;42.782;23.108;2023-02-12T05:48:09;21.45;;;11.10;;
62929;SDS011;49036;42.782;23.108;2023-02-12T05:50:34;24.83;;;12.38;;
62929;SDS011;49036;42.782;23.108;2023-02-12T05:53:01;24.65;;;11.80;;
62929;SDS011;49036;42.782;23.108;2023-02-12T05:55:26;19.05;;;9.95;;
62929;SDS011;49036;42.782;23.108;2023-02-12T05:57:52;18.45;;;11.93;;
62929;SDS011;49036;42.782;23.108;2023-02-12T06:00:18;27.33;;;12.82;;
62929;SDS011;49036;42.782;23.108;2023-02-12T06:02:43;25.65;;;10.90;;
62929;SDS011;49036;42.782;23.108;2023-02-12T06:05:09;24.75;;;13.32;;
62929;SDS011;49036;42.782;23.108;2023-02-12T06:07:34;23.55;;;12.13;;
62929;SDS011;49036;42.782;23.108;2023-02-12T06:10:00;29.25;;;13.90;;
62929;SDS011;49036;42.782;23.108;2023-02-12T06:12:25;22.08;;;12.60;;
62929;SDS011;49036;42.782;23.108;2023-02-12T06:14:51;25.20;;;12.82;;
62929;SDS011;49036;42.782;23.108;2023-02-12T06:17:16;18.60;;;10.52;;
62929;SDS011;49036;42.782;23.108;2023-02-12T06:19:42;21.30;;;12.02;;
62929;SDS011;49036;42.782;23.108;2023-02-12T06:22:07;22.48;;;11.93;;
62929;SDS011;49036;42.782;23.108;2023-02-12T06:24:33;19.42;;;11.20;;
62929;SDS011;49036;42.782;23.108;2023-02-12T06:26:58;16.40;;;8.80;;
62929;SDS011;49036;42.782;23.108;2023-02-12T06:29:24;21.98;;;9.82;;
62929;SDS011;49036;42.782;23.108;2023-02-12T06:31:49;25.40;;;11.80;;
62929;SDS011;49036;42.782;23.108;2023-02-12T06:34:15;17.95;;;8.57;;
62929;SDS011;49036;42.782;23.108;2023-02-12T06:36:44;20.05;;;9.90;;
62929;SDS011;49036;42.782;23.108;2023-02-12T06:39:11;20.88;;;11.15;;
62929;SDS011;49036;42.782;23.108;2023-02-12T06:41:38;21.88;;;10.95;;
62929;SDS011;49036;42.782;23.108;2023-02-12T06:44:04;22.02;;;11.77;;
62929;SDS011;49036;42.782;23.108;2023-02-12T06:46:30;21.70;;;10.98;;
62929;SDS011;49036;42.782;23.108;2023-02-12T06:48:57;26.38;;;11.43;;
62929;SDS011;49036;42.782;23.108;2023-02-12T06:51:24;26.83;;;12.50;;
62929;SDS011;49036;42.782;23.108;2023-02-12T06:53:51;19.05;;;8.50;;
62929;SDS011;49036;42.782;23.108;2023-02-12T06:56:19;26.80;;;12.60;;
62929;SDS011;49036;42.782;23.108;2023-02-12T06:58:46;22.95;;;11.63;;
62929;SDS011;49036;42.782;23.108;2023-02-12T07:01:17;23.95;;;11.60;;
62929;SDS011;49036;42.782;23.108;2023-02-12T07:03:55;19.40;;;9.50;;
62929;SDS011;49036;42.782;23.108;2023-02-12T07:06:23;23.13;;;10.00;;
62929;SDS011;49036;42.782;23.108;2023-02-12T07:08:49;24.52;;;11.77;;
62929;SDS011;49036;42.782;23.108;2023-02-12T07:11:16;21.60;;;10.98;;
62929;SDS011;49036;42.782;23.108;2023-02-12T07:13:43;18.88;;;9.55;;
62929;SDS011;49036;42.782;23.108;2023-02-12T07:16:10;23.70;;;11.60;;
62929;SDS011;49036;42.782;23.108;2023-02-12T07:18:38;26.40;;;9.18;;
62929;SDS011;49036;42.782;23.108;2023-02-12T07:21:04;22.05;;;13.50;;
62929;SDS011;49036;42.782;23.108;2023-02-12T07:23:31;24.40;;;11.90;;
62929;SDS011;49036;42.782;23.108;2023-02-12T07:25:57;21.40;;;11.95;;
62929;SDS011;49036;42.782;23.108;2023-02-12T07:28:24;14.20;;;8.18;;
62929;SDS011;49036;42.782;23.108;2023-02-12T07:30:51;18.45;;;10.43;;
62929;SDS011;49036;42.782;23.108;2023-02-12T07:33:17;25.23;;;9.98;;
62929;SDS011;49036;42.782;23.108;2023-02-12T07:35:42;21.83;;;11.80;;
62929;SDS011;49036;42.782;23.108;2023-02-12T07:38:08;23.40;;;11.38;;
62929;SDS011;49036;42.782;23.108;2023-02-12T07:40:34;25.55;;;12.57;;
62929;SDS011;49036;42.782;23.108;2023-02-12T07:43:00;22.98;;;11.85;;
62929;SDS011;49036;42.782;23.108;2023-02-12T07:45:25;19.77;;;10.35;;
62929;SDS011;49036;42.782;23.108;2023-02-12T07:47:51;24.40;;;10.77;;
62929;SDS011;49036;42.782;23.108;2023-02-12T07:50:16;28.65;;;11.55;;
62929;SDS011;49036;42.782;23.108;2023-02-12T07:52:42;24.48;;;12.85;;
62929;SDS011;49036;42.782;23.108;2023-02-12T07:55:07;23.63;;;12.05;;
62929;SDS011;49036;42.782;23.108;2023-02-12T07:57:33;18.98;;;11.65;;
62929;SDS011;49036;42.782;23.108;2023-02-12T07:59:59;22.35;;;12.93;;
62929;SDS011;49036;42.782;23.108;2023-02-12T08:02:25;26.25;;;14.07;;
62929;SDS011;49036;42.782;23.108;2023-02-12T08:04:54;25.67;;;14.32;;
62929;SDS011;49036;42.782;23.108;2023-02-12T08:07:20;29.77;;;13.45;;
62929;SDS011;49036;42.782;23.108;2023-02-12T08:09:45;29.05;;;13.95;;
62929;SDS011;49036;42.782;23.108;2023-02-12T08:12:11;23.00;;;11.38;;
62929;SDS011;49036;42.782;23.108;2023-02-12T08:14:36;29.00;;;14.73;;
62929;SDS011;49036;42.782;23.108;2023-02-12T08:17:02;22.13;;;12.80;;
62929;SDS011;49036;42.782;23.108;2023-02-12T08:19:27;31.08;;;14.43;;
62929;SDS011;49036;42.782;23.108;2023-02-12T08:21:53;28.92;;;13.30;;
62929;SDS011;49036;42.782;23.108;2023-02-12T08:24:20;26.83;;;14.30;;
62929;SDS011;49036;42.782;23.108;2023-02-12T08:26:46;25.48;;;11.80;;
62929;SDS011;49036;42.782;23.108;2023-02-12T08:29:14;28.95;;;12.50;;
62929;SDS011;49036;42.782;23.108;2023-02-12T08:31:43;22.73;;;11.00;;
62929;SDS011;49036;42.782;23.108;2023-02-12T08:34:18;28.88;;;12.38;;
62929;SDS011;49036;42.782;23.108;2023-02-12T08:36:48;29.55;;;13.95;;
62929;SDS011;49036;42.782;23.108;2023-02-12T08:39:16;25.95;;;13.45;;
62929;SDS011;49036;42.782;23.108;2023-02-12T08:41:43;29.48;;;14.15;;
62929;SDS011;49036;42.782;23.108;2023-02-12T08:44:09;29.08;;;13.85;;
62929;SDS011;49036;42.782;23.108;2023-02-12T08:46:36;25.08;;;13.15;;
62929;SDS011;49036;42.782;23.108;2023-02-12T08:49:07;27.42;;;14.30;;
62929;SDS011;49036;42.782;23.108;2023-02-12T08:51:38;18.70;;;10.70;;
62929;SDS011;49036;42.782;23.108;2023-02-12T08:54:06;32.20;;;15.15;;
62929;SDS011;49036;42.782;23.108;2023-02-12T08:56:38;29.92;;;14.25;;
62929;SDS011;49036;42.782;23.108;2023-02-12T08:59:04;25.83;;;13.18;;
62929;SDS011;49036;42.782;23.108;2023-02-12T09:01:32;34.33;;;16.50;;
62929;SDS011;49036;42.782;23.108;2023-02-12T09:04:02;26.63;;;13.45;;
62929;SDS011;49036;42.782;23.108;2023-02-12T09:06:30;27.38;;;13.77;;
62929;SDS011;49036;42.782;23.108;2023-02-12T09:08:57;24.45;;;11.07;;
62929;SDS011;49036;42.782;23.108;2023-02-12T09:11:23;27.65;;;14.02;;
62929;SDS011;49036;42.782;23.108;2023-02-12T09:13:55;32.25;;;15.82;;
62929;SDS011;49036;42.782;23.108;2023-02-12T09:16:24;29.35;;;14.32;;
62929;SDS011;49036;42.782;23.108;2023-02-12T09:18:50;30.02;;;15.60;;
62929;SDS011;49036;42.782;23.108;2023-02-12T09:21:16;17.13;;;8.98;;
62929;SDS011;49036;42.782;23.108;2023-02-12T09:23:42;40.30;;;18.25;;
62929;SDS011;49036;42.782;23.108;2023-02-12T09:26:09;35.60;;;16.85;;
62929;SDS011;49036;42.782;23.108;2023-02-12T09:28:37;32.80;;;16.00;;
62929;SDS011;49036;42.782;23.108;2023-02-12T09:31:07;39.95;;;15.73;;
62929;SDS011;49036;42.782;23.108;2023-02-12T09:33:33;32.20;;;17.00;;
62929;SDS011;49036;42.782;23.108;2023-02-12T09:36:00;27.10;;;14.13;;
62929;SDS011;49036;42.782;23.108;2023-02-12T09:38:30;38.15;;;16.92;;
62929;SDS011;49036;42.782;23.108;2023-02-12T09:43:50;33.33;;;17.20;;
62929;SDS011;49036;42.782;23.108;2023-02-12T09:46:19;29.98;;;16.95;;
62929;SDS011;49036;42.782;23.108;2023-02-12T09:51:32;33.15;;;17.08;;
62929;SDS011;49036;42.782;23.108;2023-02-12T09:54:05;32.08;;;15.75;;
62929;SDS011;49036;42.782;23.108;2023-02-12T09:56:35;25.67;;;13.60;;
62929;SDS011;49036;42.782;23.108;2023-02-12T09:59:04;30.30;;;15.13;;
62929;SDS011;49036;42.782;23.108;2023-02-12T10:01:32;34.92;;;16.85;;
62929;SDS011;49036;42.782;23.108;2023-02-12T10:03:58;33.08;;;15.15;;
62929;SDS011;49036;42.782;23.108;2023-02-12T10:06:25;32.22;;;16.77;;
62929;SDS011;49036;42.782;23.108;2023-02-12T10:09:14;27.48;;;15.48;;
62929;SDS011;49036;42.782;23.108;2023-02-12T10:20:37;26.60;;;13.68;;
62929;SDS011;49036;42.782;23.108;2023-02-12T10:26:02;32.90;;;16.17;;
62929;SDS011;49036;42.782;23.108;2023-02-12T10:28:37;26.73;;;14.68;;
62929;SDS011;49036;42.782;23.108;2023-02-12T10:31:06;31.48;;;13.35;;
62929;SDS011;49036;42.782;23.108;2023-02-12T10:33:41;31.02;;;14.98;;
62929;SDS011;49036;42.782;23.108;2023-02-12T10:41:36;27.77;;;16.23;;
62929;SDS011;49036;42.782;23.108;2023-02-12T10:44:05;38.17;;;16.95;;
62929;SDS011;49036;42.782;23.108;2023-02-12T10:46:31;32.95;;;16.38;;
62929;SDS011;49036;42.782;23.108;2023-02-12T10:48:56;28.88;;;14.77;;
62929;SDS011;49036;42.782;23.108;2023-02-12T10:54:31;33.95;;;17.23;;
62929;SDS011;49036;42.782;23.108;2023-02-12T10:56:57;27.70;;;13.63;;
62929;SDS011;49036;42.782;23.108;2023-02-12T10:59:24;28.85;;;14.75;;
62929;SDS011;49036;42.782;23.108;2023-02-12T11:01:49;25.83;;;13.27;;
62929;SDS011;49036;42.782;23.108;2023-02-12T11:04:19;32.53;;;13.02;;
62929;SDS011;49036;42.782;23.108;2023-02-12T11:06:55;29.10;;;13.45;;
62929;SDS011;49036;42.782;23.108;2023-02-12T11:09:30;28.02;;;12.52;;
62929;SDS011;49036;42.782;23.108;2023-02-12T11:12:00;32.90;;;17.08;;
62929;SDS011;49036;42.782;23.108;2023-02-12T11:14:26;28.25;;;15.88;;
62929;SDS011;49036;42.782;23.108;2023-02-12T11:16:54;35.03;;;14.32;;
62929;SDS011;49036;42.782;23.108;2023-02-12T11:19:23;35.25;;;19.77;;
62929;SDS011;49036;42.782;23.108;2023-02-12T11:21:51;31.48;;;16.00;;
62929;SDS011;49036;42.782;23.108;2023-02-12T11:24:29;31.67;;;14.93;;
62929;SDS011;49036;42.782;23.108;2023-02-12T11:27:17;27.75;;;17.52;;
62929;SDS011;49036;42.782;23.108;2023-02-12T11:30:03;27.60;;;15.00;;
62929;SDS011;49036;42.782;23.108;2023-02-12T11:32:35;29.73;;;16.70;;
62929;SDS011;49036;42.782;23.108;2023-02-12T11:37:31;23.98;;;13.35;;
62929;SDS011;49036;42.782;23.108;2023-02-12T11:40:00;31.67;;;16.88;;
62929;SDS011;49036;42.782;23.108;2023-02-12T11:42:26;36.67;;;16.85;;
62929;SDS011;49036;42.782;23.108;2023-02-12T11:44:57;31.30;;;16.30;;
62929;SDS011;49036;42.782;23.108;2023-02-12T11:47:31;35.20;;;16.58;;
62929;SDS011;49036;42.782;23.108;2023-02-12T11:52:40;32.05;;;18.17;;
62929;SDS011;49036;42.782;23.108;2023-02-12T11:55:10;33.25;;;18.52;;
62929;SDS011;49036;42.782;23.108;2023-02-12T11:57:48;34.95;;;18.42;;
62929;SDS011;49036;42.782;23.108;2023-02-12T12:00:18;30.20;;;15.88;;
62929;SDS011;49036;42.782;23.108;2023-02-12T12:02:57;30.40;;;16.77;;
62929;SDS011;49036;42.782;23.108;2023-02-12T12:05:30;25.17;;;14.05;;
62929;SDS011;49036;42.782;23.108;2023-02-12T12:08:05;30.58;;;16.27;;
62929;SDS011;49036;42.782;23.108;2023-02-12T12:10:53;32.85;;;17.92;;
62929;SDS011;49036;42.782;23.108;2023-02-12T12:13:22;29.20;;;14.88;;
62929;SDS011;49036;42.782;23.108;2023-02-12T12:16:08;29.00;;;14.27;;
62929;SDS011;49036;42.782;23.108;2023-02-12T12:19:09;31.52;;;16.02;;
62929;SDS011;49036;42.782;23.108;2023-02-12T12:25:09;29.95;;;17.42;;
62929;SDS011;49036;42.782;23.108;2023-02-12T12:30:44;29.88;;;14.40;;
62929;SDS011;49036;42.782;23.108;2023-02-12T12:38:31;31.35;;;16.45;;
62929;SDS011;49036;42.782;23.108;2023-02-12T12:43:47;30.52;;;18.58;;
62929;SDS011;49036;42.782;23.108;2023-02-12T12:52:02;28.02;;;15.32;;
62929;SDS011;49036;42.782;23.108;2023-02-12T12:57:28;30.75;;;14.20;;
62929;SDS011;49036;42.782;23.108;2023-02-12T13:00:09;29.55;;;13.82;;
62929;SDS011;49036;42.782;23.108;2023-02-12T13:05:43;32.90;;;18.30;;
62929;SDS011;49036;42.782;23.108;2023-02-12T13:10:47;36.90;;;18.63;;
62929;SDS011;49036;42.782;23.108;2023-02-12T13:21:21;28.50;;;15.27;;
62929;SDS011;49036;42.782;23.108;2023-02-12T13:26:58;33.10;;;14.93;;
62929;SDS011;49036;42.782;23.108;2023-02-12T13:29:30;30.63;;;15.48;;
62929;SDS011;49036;42.782;23.108;2023-02-12T13:32:04;31.95;;;17.48;;
62929;SDS011;49036;42.782;23.108;2023-02-12T13:34:38;41.58;;;18.58;;
62929;SDS011;49036;42.782;23.108;2023-02-12T13:37:06;26.48;;;13.25;;
62929;SDS011;49036;42.782;23.108;2023-02-12T13:39:40;37.20;;;16.80;;
62929;SDS011;49036;42.782;23.108;2023-02-12T14:05:16;32.45;;;14.85;;
62929;SDS011;49036;42.782;23.108;2023-02-12T14:07:46;27.60;;;15.35;;
62929;SDS011;49036;42.782;23.108;2023-02-12T14:10:30;32.65;;;15.75;;
62929;SDS011;49036;42.782;23.108;2023-02-12T14:12:57;38.28;;;16.95;;
62929;SDS011;49036;42.782;23.108;2023-02-12T14:15:38;34.60;;;16.75;;
62929;SDS011;49036;42.782;23.108;2023-02-12T14:23:35;27.08;;;15.80;;
62929;SDS011;49036;42.782;23.108;2023-02-12T14:26:05;25.55;;;13.52;;
62929;SDS011;49036;42.782;23.108;2023-02-12T14:31:19;32.92;;;15.88;;
62929;SDS011;49036;42.782;23.108;2023-02-12T14:33:52;36.38;;;17.38;;
62929;SDS011;49036;42.782;23.108;2023-02-12T14:41:51;36.33;;;16.45;;
62929;SDS011;49036;42.782;23.108;2023-02-12T14:46:55;38.13;;;17.98;;
62929;SDS011;49036;42.782;23.108;2023-02-12T14:49:23;35.90;;;19.35;;
62929;SDS011;49036;42.782;23.108;2023-02-12T14:54:40;40.50;;;19.67;;
62929;SDS011;49036;42.782;23.108;2023-02-12T14:57:12;41.22;;;20.98;;
62929;SDS011;49036;42.782;23.108;2023-02-12T14:59:47;41.75;;;19.83;;
62929;SDS011;49036;42.782;23.108;2023-02-12T15:02:19;34.25;;;18.80;;
62929;SDS011;49036;42.782;23.108;2023-02-12T15:04:49;37.08;;;19.67;;
62929;SDS011;49036;42.782;23.108;2023-02-12T15:07:19;36.10;;;19.98;;
62929;SDS011;49036;42.782;23.108;2023-02-12T15:09:56;45.38;;;20.23;;
62929;SDS011;49036;42.782;23.108;2023-02-12T15:12:30;35.35;;;19.83;;
62929;SDS011;49036;42.782;23.108;2023-02-12T15:23:38;45.20;;;21.02;;
62929;SDS011;49036;42.782;23.108;2023-02-12T15:26:09;42.28;;;20.90;;
62929;SDS011;49036;42.782;23.108;2023-02-12T15:28:39;46.22;;;21.20;;
62929;SDS011;49036;42.782;23.108;2023-02-12T15:31:06;46.72;;;22.08;;
62929;SDS011;49036;42.782;23.108;2023-02-12T15:33:36;50.65;;;23.90;;
62929;SDS011;49036;42.782;23.108;2023-02-12T15:36:06;52.08;;;23.02;;
62929;SDS011;49036;42.782;23.108;2023-02-12T15:38:35;46.15;;;22.83;;
62929;SDS011;49036;42.782;23.108;2023-02-12T15:41:04;45.97;;;24.27;;
62929;SDS011;49036;42.782;23.108;2023-02-12T15:43:31;52.97;;;25.95;;
62929;SDS011;49036;42.782;23.108;2023-02-12T15:46:02;56.40;;;27.35;;
62929;SDS011;49036;42.782;23.108;2023-02-12T15:48:34;43.55;;;23.40;;
62929;SDS011;49036;42.782;23.108;2023-02-12T15:51:07;49.05;;;24.80;;
62929;SDS011;49036;42.782;23.108;2023-02-12T15:53:40;47.67;;;22.25;;
62929;SDS011;49036;42.782;23.108;2023-02-12T15:56:14;56.10;;;26.85;;
62929;SDS011;49036;42.782;23.108;2023-02-12T15:58:49;58.15;;;26.10;;
62929;SDS011;49036;42.782;23.108;2023-02-12T16:01:24;54.97;;;22.25;;
62929;SDS011;49036;42.782;23.108;2023-02-12T16:03:56;58.60;;;26.55;;
62929;SDS011;49036;42.782;23.108;2023-02-12T16:06:30;48.10;;;24.75;;
62929;SDS011;49036;42.782;23.108;2023-02-12T16:09:08;53.97;;;23.88;;
62929;SDS011;49036;42.782;23.108;2023-02-12T16:11:42;56.78;;;25.80;;
62929;SDS011;49036;42.782;23.108;2023-02-12T16:14:17;46.40;;;22.50;;
62929;SDS011;49036;42.782;23.108;2023-02-12T16:16:47;58.05;;;25.67;;
62929;SDS011;49036;42.782;23.108;2023-02-12T16:19:22;58.90;;;26.25;;
62929;SDS011;49036;42.782;23.108;2023-02-12T16:22:08;55.47;;;25.33;;
62929;SDS011;49036;42.782;23.108;2023-02-12T16:24:44;52.88;;;25.30;;
62929;SDS011;49036;42.782;23.108;2023-02-12T16:29:43;45.00;;;21.95;;
62929;SDS011;49036;42.782;23.108;2023-02-12T16:32:25;50.70;;;24.58;;
62929;SDS011;49036;42.782;23.108;2023-02-12T16:42:58;56.22;;;26.05;;
62929;SDS011;49036;42.782;23.108;2023-02-12T16:47:56;47.17;;;21.95;;
62929;SDS011;49036;42.782;23.108;2023-02-12T16:53:21;46.55;;;24.25;;
62929;SDS011;49036;42.782;23.108;2023-02-12T16:55:50;56.13;;;24.75;;
62929;SDS011;49036;42.782;23.108;2023-02-12T16:58:15;47.35;;;21.08;;
62929;SDS011;49036;42.782;23.108;2023-02-12T17:00:41;58.17;;;25.45;;
62929;SDS011;49036;42.782;23.108;2023-02-12T17:03:09;43.83;;;21.13;;
62929;SDS011;49036;42.782;23.108;2023-02-12T17:05:37;54.97;;;25.83;;
62929;SDS011;49036;42.782;23.108;2023-02-12T17:08:02;62.25;;;30.23;;
62929;SDS011;49036;42.782;23.108;2023-02-12T17:10:28;60.00;;;27.75;;
62929;SDS011;49036;42.782;23.108;2023-02-12T17:12:53;60.33;;;22.52;;
62929;SDS011;49036;42.782;23.108;2023-02-12T17:15:20;57.40;;;25.13;;
62929;SDS011;49036;42.782;23.108;2023-02-12T17:17:48;59.92;;;27.15;;
62929;SDS011;49036;42.782;23.108;2023-02-12T17:20:14;65.82;;;29.83;;
62929;SDS011;49036;42.782;23.108;2023-02-12T17:22:44;64.28;;;29.23;;